Terminal Aerodrome Forecast
Issued by NWS

Home | Current Version | Previous Version | Text Only | Print | Product List | Glossary On
Versions: 1 2 3 4 5 6 7 8 9 10 11 12
000
FTUS45 KTFX 260520
TAFHVR
TAF
KHVR 260520Z 2606/2706 VRB05KT P6SM SCT090 BKN140
     FM262000 30010KT P6SM SCT060 BKN090 PROB30 2622/2702 -SHRA
      BKN060=

USA.gov is the U.S. government's official web portal to all federal, state and local government web resources and services.